createdAt,value
2022-08-01T00:00:16.659Z,17.50
2022-08-01T00:01:20.877Z,17.44
2022-08-01T00:02:24.536Z,17.41
2022-08-01T00:03:27.414Z,17.40
2022-08-01T00:04:30.069Z,17.40
2022-08-01T00:05:32.586Z,17.44
2022-08-01T00:06:35.305Z,17.44
2022-08-01T00:07:37.937Z,17.43
2022-08-01T00:08:40.541Z,17.45
2022-08-01T00:09:43.117Z,17.41
2022-08-01T00:10:46.084Z,17.44
2022-08-01T00:11:48.772Z,17.43
2022-08-01T00:12:53.273Z,17.40
2022-08-01T00:13:55.938Z,17.41
2022-08-01T00:14:58.616Z,17.41
2022-08-01T00:16:01.233Z,17.41
2022-08-01T00:17:07.256Z,17.42
2022-08-01T00:18:08.341Z,17.40
2022-08-01T00:19:11.028Z,17.39
2022-08-01T00:20:14.375Z,17.39
2022-08-01T00:21:17.904Z,17.39
2022-08-01T00:22:20.685Z,17.41
2022-08-01T00:23:23.654Z,17.41
2022-08-01T00:24:26.293Z,17.38
2022-08-01T00:25:34.251Z,17.36
2022-08-01T00:26:33.644Z,17.38
2022-08-01T00:27:37.509Z,17.40
2022-08-01T00:28:40.752Z,17.37
2022-08-01T00:30:10.879Z,17.38
2022-08-01T00:30:48.173Z,17.36
2022-08-01T00:31:50.871Z,17.33
2022-08-01T00:32:53.441Z,17.31
2022-08-01T00:33:56.068Z,17.27
2022-08-01T00:34:58.645Z,17.28
2022-08-01T00:36:01.233Z,17.29
2022-08-01T00:37:05.413Z,17.26
2022-08-01T00:38:10.369Z,17.27
2022-08-01T00:39:13.819Z,17.23
2022-08-01T00:40:21.322Z,17.22
2022-08-01T00:41:25.301Z,17.20
2022-08-01T00:42:29.208Z,17.21
2022-08-01T00:43:41.535Z,17.21
2022-08-01T00:44:45.303Z,17.21
2022-08-01T00:45:47.989Z,17.16
2022-08-01T00:46:57.320Z,17.13
2022-08-01T00:48:03.992Z,17.16
2022-08-01T00:49:12.830Z,17.14
2022-08-01T00:50:17.485Z,17.11
2022-08-01T00:51:20.615Z,17.12
2022-08-01T00:52:24.069Z,17.10
2022-08-01T00:53:26.611Z,17.09
2022-08-01T00:54:31.141Z,17.05
2022-08-01T00:55:34.104Z,17.06
2022-08-01T00:56:40.416Z,17.05
2022-08-01T00:58:04.709Z,17.04
2022-08-01T00:59:00.175Z,17.02
2022-08-01T01:00:05.038Z,17.03
2022-08-01T01:01:10.316Z,17.03
2022-08-01T01:02:15.036Z,17.01
2022-08-01T01:03:18.510Z,16.97
2022-08-01T01:04:21.171Z,16.91
2022-08-01T01:05:24.168Z,16.95
2022-08-01T01:06:28.907Z,16.94
2022-08-01T01:07:31.806Z,16.93
2022-08-01T01:08:35.523Z,16.94
2022-08-01T01:09:38.092Z,16.89
2022-08-01T01:10:42.191Z,16.87
2022-08-01T01:11:45.939Z,16.84
2022-08-01T01:12:50.298Z,16.81
2022-08-01T01:13:53.479Z,16.80
2022-08-01T01:14:56.150Z,16.77
2022-08-01T01:15:58.723Z,16.73
2022-08-01T01:17:01.611Z,16.72
2022-08-01T01:18:04.255Z,16.69
2022-08-01T01:19:06.826Z,16.70
2022-08-01T01:20:09.800Z,16.68
2022-08-01T01:21:14.514Z,16.65
2022-08-01T01:22:21.946Z,16.63
2022-08-01T01:23:24.879Z,16.61
2022-08-01T01:24:27.469Z,16.57
2022-08-01T01:25:31.025Z,16.57
2022-08-01T01:26:36.234Z,16.54
2022-08-01T01:27:40.059Z,16.57
2022-08-01T01:28:47.277Z,16.54
2022-08-01T01:30:00.287Z,16.49
2022-08-01T01:30:55.636Z,16.48
2022-08-01T01:32:06.626Z,16.48
2022-08-01T01:33:09.678Z,16.49
2022-08-01T01:34:16.547Z,16.47
2022-08-01T01:35:23.579Z,16.47
2022-08-01T01:36:29.753Z,16.45
2022-08-01T01:37:34.180Z,16.42
2022-08-01T01:38:37.772Z,16.44
2022-08-01T01:39:40.352Z,16.42
2022-08-01T01:40:45.167Z,16.37
2022-08-01T01:41:47.727Z,16.37
2022-08-01T01:42:51.666Z,16.38
2022-08-01T01:43:59.346Z,16.35
2022-08-01T01:45:05.992Z,16.32
2022-08-01T01:46:09.878Z,16.34
2022-08-01T01:47:12.552Z,16.32
2022-08-01T01:48:15.117Z,16.28
2022-08-01T01:49:18.246Z,16.23
2022-08-01T01:50:22.704Z,16.26
2022-08-01T01:51:25.278Z,16.21
2022-08-01T01:52:27.979Z,16.20
2022-08-01T01:53:30.461Z,16.19
2022-08-01T01:54:33.388Z,16.18
2022-08-01T01:55:49.643Z,16.19
2022-08-01T01:56:41.275Z,16.20
2022-08-01T01:57:44.296Z,16.15
2022-08-01T01:58:47.326Z,16.16
2022-08-01T01:59:49.897Z,16.15
2022-08-01T02:00:52.673Z,16.16
2022-08-01T02:02:05.689Z,16.14
2022-08-01T02:03:00.122Z,16.14
2022-08-01T02:04:13.479Z,16.15
2022-08-01T02:05:16.003Z,16.12
2022-08-01T02:06:20.492Z,16.10
2022-08-01T02:07:22.987Z,16.12
2022-08-01T02:08:25.592Z,16.11
2022-08-01T02:09:29.444Z,16.11
2022-08-01T02:10:32.155Z,16.14
2022-08-01T02:11:35.339Z,16.13
2022-08-01T02:12:38.030Z,16.14
2022-08-01T02:13:40.571Z,16.18
2022-08-01T02:14:43.138Z,16.20
2022-08-01T02:15:59.014Z,16.22
2022-08-01T02:16:50.630Z,16.21
2022-08-01T02:17:54.325Z,16.28
2022-08-01T02:18:57.211Z,16.44
2022-08-01T02:19:59.939Z,16.69
2022-08-01T02:21:02.495Z,16.87
2022-08-01T02:22:05.417Z,17.05
2022-08-01T02:23:08.503Z,17.22
2022-08-01T02:24:11.292Z,17.43
2022-08-01T02:25:14.132Z,17.57
2022-08-01T02:26:17.066Z,17.77
2022-08-01T02:27:19.688Z,17.91
2022-08-01T02:28:22.457Z,17.97
2022-08-01T02:29:26.851Z,18.05
2022-08-01T02:30:30.200Z,18.17
2022-08-01T02:31:32.811Z,18.45
2022-08-01T02:32:35.478Z,18.72
2022-08-01T02:33:38.050Z,18.93
2022-08-01T02:34:40.714Z,19.08
2022-08-01T02:36:30.375Z,19.20
2022-08-01T02:36:48.410Z,19.31
2022-08-01T02:37:52.124Z,19.32
2022-08-01T02:38:55.280Z,19.57
2022-08-01T02:39:59.691Z,19.87
2022-08-01T02:41:02.463Z,20.11
2022-08-01T02:42:05.325Z,20.32
2022-08-01T02:43:08.415Z,20.48
2022-08-01T02:44:11.047Z,20.72
2022-08-01T02:45:14.066Z,20.87
2022-08-01T02:46:17.347Z,20.95
2022-08-01T02:47:20.026Z,21.02
2022-08-01T02:48:22.686Z,20.98
2022-08-01T02:49:25.320Z,21.09
2022-08-01T02:50:29.253Z,21.19
2022-08-01T02:51:31.819Z,21.32
2022-08-01T02:52:34.804Z,21.47
2022-08-01T02:53:44.269Z,21.56
2022-08-01T02:54:42.081Z,21.49
2022-08-01T02:55:44.711Z,21.54
2022-08-01T02:56:47.417Z,21.69
2022-08-01T02:57:52.219Z,21.79
2022-08-01T02:58:54.601Z,21.74
2022-08-01T02:59:59.115Z,21.76
2022-08-01T03:01:01.820Z,21.68
2022-08-01T03:02:05.900Z,21.64
2022-08-01T03:03:10.321Z,21.64
2022-08-01T03:04:13.172Z,21.71
2022-08-01T03:05:15.794Z,21.74
2022-08-01T03:06:19.397Z,21.52
2022-08-01T03:07:21.993Z,21.45
2022-08-01T03:08:24.488Z,21.36
2022-08-01T03:09:27.333Z,21.38
2022-08-01T03:10:30.683Z,21.38
2022-08-01T03:11:33.249Z,21.42
2022-08-01T03:12:35.892Z,21.41
2022-08-01T03:13:38.386Z,21.30
2022-08-01T03:14:40.989Z,21.25
2022-08-01T03:15:43.553Z,21.06
2022-08-01T03:16:46.428Z,20.62
2022-08-01T03:17:49.100Z,20.49
2022-08-01T03:18:51.768Z,20.45
2022-08-01T03:19:54.341Z,20.39
2022-08-01T03:20:57.413Z,20.26
2022-08-01T03:22:00.109Z,20.24
2022-08-01T03:23:03.690Z,20.02
2022-08-01T03:24:06.305Z,19.96
2022-08-01T03:25:08.908Z,19.91
2022-08-01T03:26:11.945Z,19.86
2022-08-01T03:27:14.561Z,20.04
2022-08-01T03:28:17.257Z,19.90
2022-08-01T03:29:19.787Z,19.58
2022-08-01T03:30:23.291Z,19.85
2022-08-01T03:31:25.949Z,19.81
2022-08-01T03:32:28.517Z,19.56
2022-08-01T03:33:31.288Z,19.72
2022-08-01T03:34:33.826Z,19.64
2022-08-01T03:35:36.425Z,19.66
2022-08-01T03:36:41.240Z,19.54
2022-08-01T03:38:13.149Z,19.55
2022-08-01T03:38:48.380Z,19.46
2022-08-01T03:39:51.295Z,19.57
2022-08-01T03:40:54.295Z,19.47
2022-08-01T03:41:57.249Z,19.53
2022-08-01T03:42:59.823Z,19.57
2022-08-01T03:44:02.483Z,19.52
2022-08-01T03:45:05.029Z,19.45
2022-08-01T03:46:08.128Z,19.29
2022-08-01T03:47:10.700Z,19.38
2022-08-01T03:48:13.576Z,19.38
2022-08-01T03:49:16.390Z,19.36
2022-08-01T03:50:21.264Z,19.53
2022-08-01T03:51:24.041Z,19.66
2022-08-01T03:52:26.608Z,19.65
2022-08-01T03:53:30.912Z,19.71
2022-08-01T03:54:33.476Z,19.71
2022-08-01T03:55:36.047Z,19.73
2022-08-01T03:56:38.920Z,19.85
2022-08-01T03:57:41.490Z,20.00
2022-08-01T03:58:43.932Z,20.11
2022-08-01T03:59:46.679Z,20.21
2022-08-01T04:00:50.220Z,20.28
2022-08-01T04:01:52.945Z,20.34
2022-08-01T04:02:55.859Z,20.35
2022-08-01T04:03:58.424Z,20.39
2022-08-01T04:05:01.017Z,20.45
2022-08-01T04:06:03.844Z,20.46
2022-08-01T04:07:06.433Z,20.56
2022-08-01T04:08:08.920Z,20.59
2022-08-01T04:09:13.643Z,20.68
2022-08-01T04:10:16.279Z,20.59
2022-08-01T04:11:19.668Z,20.63
2022-08-01T04:12:22.193Z,20.77
2022-08-01T04:13:24.802Z,20.82
2022-08-01T04:14:29.168Z,20.88
2022-08-01T04:15:31.884Z,20.99
2022-08-01T04:16:35.196Z,21.02
2022-08-01T04:17:37.815Z,21.04
2022-08-01T04:18:40.401Z,21.19
2022-08-01T04:19:42.979Z,21.12
2022-08-01T04:20:45.842Z,21.24
2022-08-01T04:21:49.742Z,21.33
2022-08-01T04:22:52.721Z,21.22
2022-08-01T04:23:55.715Z,21.35
2022-08-01T04:24:58.322Z,21.43
2022-08-01T04:26:00.929Z,21.41
2022-08-01T04:27:03.527Z,21.46
2022-08-01T04:28:06.080Z,21.59
2022-08-01T04:29:08.629Z,21.69
2022-08-01T04:30:12.016Z,21.77
2022-08-01T04:31:16.628Z,21.84
2022-08-01T04:32:19.156Z,22.01
2022-08-01T04:33:21.764Z,22.18
2022-08-01T04:34:24.436Z,22.03
2022-08-01T04:36:02.740Z,22.15
2022-08-01T04:36:32.233Z,22.29
2022-08-01T04:37:34.897Z,22.31
2022-08-01T04:38:38.647Z,22.45
2022-08-01T04:39:50.928Z,22.32
2022-08-01T04:40:46.597Z,22.36
2022-08-01T04:41:50.304Z,22.39
2022-08-01T04:42:52.874Z,22.54
2022-08-01T04:43:55.479Z,22.73
2022-08-01T04:44:58.087Z,22.87
2022-08-01T04:46:00.611Z,23.03
2022-08-01T04:47:05.090Z,23.22
2022-08-01T04:48:07.653Z,23.26
2022-08-01T04:49:10.423Z,23.24
2022-08-01T04:50:14.131Z,23.44
2022-08-01T04:51:16.712Z,23.55
2022-08-01T04:52:24.349Z,23.57
2022-08-01T04:53:23.844Z,23.51
2022-08-01T04:54:26.409Z,23.56
2022-08-01T04:55:29.081Z,23.34
2022-08-01T04:56:31.955Z,23.26
2022-08-01T04:57:34.519Z,23.43
2022-08-01T04:58:37.087Z,23.55
2022-08-01T04:59:39.658Z,23.54
2022-08-01T05:00:42.628Z,23.67
2022-08-01T05:01:45.327Z,23.74
2022-08-01T05:02:48.303Z,23.76
2022-08-01T05:03:50.851Z,23.81
2022-08-01T05:04:53.281Z,23.73
2022-08-01T05:05:55.875Z,23.92
2022-08-01T05:06:58.646Z,24.13
2022-08-01T05:08:01.239Z,24.19
2022-08-01T05:09:03.991Z,23.94
2022-08-01T05:10:06.968Z,23.88
2022-08-01T05:11:09.484Z,23.65
2022-08-01T05:12:12.093Z,23.86
2022-08-01T05:13:14.706Z,23.85
2022-08-01T05:14:17.289Z,23.93
2022-08-01T05:15:19.897Z,24.23
2022-08-01T05:16:23.283Z,24.44
2022-08-01T05:17:25.811Z,24.51
2022-08-01T05:18:28.794Z,24.54
2022-08-01T05:19:31.595Z,24.63
2022-08-01T05:20:34.271Z,24.60
2022-08-01T05:21:37.861Z,24.73
2022-08-01T05:22:40.840Z,24.69
2022-08-01T05:23:43.816Z,24.67
2022-08-01T05:24:46.484Z,24.26
2022-08-01T05:25:57.981Z,24.53
2022-08-01T05:26:55.817Z,24.74
2022-08-01T05:27:58.380Z,24.90
2022-08-01T05:29:00.951Z,24.93
2022-08-01T05:30:03.825Z,24.92
2022-08-01T05:31:06.493Z,25.10
2022-08-01T05:32:09.262Z,25.23
2022-08-01T05:33:12.047Z,25.40
2022-08-01T05:34:15.144Z,25.20
2022-08-01T05:35:18.048Z,25.39
2022-08-01T05:36:22.459Z,25.63
2022-08-01T05:37:25.068Z,25.79
2022-08-01T05:38:27.747Z,25.98
2022-08-01T05:39:30.264Z,26.10
2022-08-01T05:40:33.283Z,26.19
2022-08-01T05:41:36.902Z,26.22
2022-08-01T05:42:39.544Z,26.36
2022-08-01T05:43:42.215Z,26.22
2022-08-01T05:44:45.189Z,25.48
2022-08-01T05:45:48.264Z,25.33
2022-08-01T05:46:51.119Z,25.53
2022-08-01T05:47:53.710Z,25.42
2022-08-01T05:48:56.333Z,25.05
2022-08-01T05:49:59.150Z,25.04
2022-08-01T05:51:02.445Z,25.34
2022-08-01T05:52:05.342Z,25.54
2022-08-01T05:53:08.342Z,25.54
2022-08-01T05:54:11.048Z,25.66
2022-08-01T05:55:13.577Z,25.89
2022-08-01T05:56:17.634Z,25.84
2022-08-01T05:57:20.221Z,25.94
2022-08-01T05:58:22.797Z,25.79
2022-08-01T05:59:25.422Z,25.77
2022-08-01T06:00:28.347Z,25.96
2022-08-01T06:01:31.252Z,26.01
2022-08-01T06:02:33.969Z,25.77
2022-08-01T06:03:36.789Z,25.94
2022-08-01T06:04:39.380Z,25.94
2022-08-01T06:05:42.254Z,25.95
2022-08-01T06:06:45.252Z,26.20
2022-08-01T06:07:47.795Z,26.27
2022-08-01T06:08:51.593Z,26.36
2022-08-01T06:09:54.470Z,26.54
2022-08-01T06:10:57.430Z,26.78
2022-08-01T06:12:00.113Z,27.01
2022-08-01T06:13:02.681Z,27.15
2022-08-01T06:14:05.394Z,27.13
2022-08-01T06:15:08.017Z,27.31
2022-08-01T06:16:11.432Z,27.29
2022-08-01T06:17:13.971Z,27.47
2022-08-01T06:18:16.639Z,27.46
2022-08-01T06:19:19.207Z,27.61
2022-08-01T06:20:23.516Z,27.63
2022-08-01T06:21:26.293Z,27.65
2022-08-01T06:22:29.263Z,27.88
2022-08-01T06:23:33.774Z,28.07
2022-08-01T06:24:36.340Z,28.05
2022-08-01T06:25:38.910Z,28.18
2022-08-01T06:26:41.647Z,28.41
2022-08-01T06:27:44.249Z,28.34
2022-08-01T06:28:47.225Z,28.09
2022-08-01T06:29:51.211Z,27.94
2022-08-01T06:30:54.507Z,27.95
2022-08-01T06:31:57.080Z,28.05
2022-08-01T06:32:59.601Z,28.22
2022-08-01T06:34:02.209Z,28.22
2022-08-01T06:35:04.841Z,28.11
2022-08-01T06:36:08.128Z,28.22
2022-08-01T06:37:10.733Z,28.41
2022-08-01T06:38:13.509Z,28.17
2022-08-01T06:39:16.172Z,27.96
2022-08-01T06:40:20.177Z,27.77
2022-08-01T06:41:22.844Z,27.76
2022-08-01T06:42:25.429Z,27.86
2022-08-01T06:43:28.593Z,27.70
2022-08-01T06:44:31.261Z,27.80
2022-08-01T06:45:33.828Z,27.64
2022-08-01T06:46:38.444Z,27.82
2022-08-01T06:47:41.020Z,27.87
2022-08-01T06:48:43.719Z,28.08
2022-08-01T06:49:46.344Z,28.30
2022-08-01T06:50:49.284Z,28.51
2022-08-01T06:51:51.883Z,28.68
2022-08-01T06:52:54.452Z,28.44
2022-08-01T06:53:57.064Z,28.17
2022-08-01T06:54:59.794Z,28.30
2022-08-01T06:56:02.669Z,28.38
2022-08-01T06:57:05.381Z,28.15
2022-08-01T06:58:07.904Z,28.46
2022-08-01T06:59:10.477Z,28.66
2022-08-01T07:00:13.928Z,28.45
2022-08-01T07:01:16.683Z,28.69
2022-08-01T07:02:20.791Z,28.89
2022-08-01T07:03:23.603Z,28.91
2022-08-01T07:04:26.476Z,29.05
2022-08-01T07:05:29.006Z,29.03
2022-08-01T07:06:32.126Z,28.56
2022-08-01T07:07:34.763Z,28.75
2022-08-01T07:08:37.361Z,28.84
2022-08-01T07:09:42.078Z,28.84
2022-08-01T07:10:44.848Z,28.96
2022-08-01T07:11:47.453Z,28.92
2022-08-01T07:12:50.041Z,28.89
2022-08-01T07:13:52.654Z,28.86
2022-08-01T07:14:55.324Z,28.42
2022-08-01T07:15:57.926Z,28.67
2022-08-01T07:17:00.665Z,28.87
2022-08-01T07:18:03.336Z,28.90
2022-08-01T07:19:05.900Z,28.87
2022-08-01T07:20:09.710Z,28.83
2022-08-01T07:21:38.143Z,28.63
2022-08-01T07:22:23.277Z,28.74
2022-08-01T07:23:22.743Z,28.58
2022-08-01T07:24:26.975Z,28.60
2022-08-01T07:25:31.332Z,28.02
2022-08-01T07:26:35.143Z,27.72
2022-08-01T07:27:37.696Z,27.94
2022-08-01T07:28:43.973Z,27.89
2022-08-01T07:29:44.669Z,27.93
2022-08-01T07:30:47.952Z,27.89
2022-08-01T07:31:50.523Z,28.09
2022-08-01T07:32:53.216Z,27.80
2022-08-01T07:33:55.756Z,27.85
2022-08-01T07:34:58.630Z,27.68
2022-08-01T07:36:03.448Z,27.84
2022-08-01T07:37:06.015Z,27.59
2022-08-01T07:38:12.547Z,27.47
2022-08-01T07:39:12.998Z,27.50
2022-08-01T07:40:17.367Z,27.40
2022-08-01T07:41:20.175Z,27.58
2022-08-01T07:42:22.739Z,27.66
2022-08-01T07:43:25.218Z,27.72
2022-08-01T07:44:28.100Z,27.68
2022-08-01T07:45:31.779Z,27.72
2022-08-01T07:46:35.999Z,27.74
2022-08-01T07:47:38.606Z,27.84
2022-08-01T07:48:41.221Z,27.71
2022-08-01T07:49:43.920Z,27.65
2022-08-01T07:50:47.005Z,27.49
2022-08-01T07:52:03.213Z,27.40
2022-08-01T07:52:54.192Z,27.28
2022-08-01T07:53:56.771Z,27.16
2022-08-01T07:54:59.336Z,27.04
2022-08-01T07:56:02.048Z,26.99
2022-08-01T07:57:04.617Z,26.99
2022-08-01T07:58:07.183Z,26.96
2022-08-01T07:59:10.715Z,26.91
2022-08-01T08:00:13.955Z,26.92
2022-08-01T08:01:16.728Z,26.88
2022-08-01T08:02:19.482Z,27.17
2022-08-01T08:03:22.371Z,27.25
2022-08-01T08:04:25.144Z,27.33
2022-08-01T08:05:58.188Z,27.37
2022-08-01T08:06:32.426Z,27.38
2022-08-01T08:07:34.944Z,27.43
2022-08-01T08:08:37.418Z,27.43
2022-08-01T08:09:40.032Z,27.61
2022-08-01T08:10:42.908Z,27.71
2022-08-01T08:11:47.709Z,27.52
2022-08-01T08:12:50.086Z,27.45
2022-08-01T08:13:52.610Z,27.58
2022-08-01T08:14:55.220Z,27.46
2022-08-01T08:15:59.730Z,27.22
2022-08-01T08:17:02.607Z,27.33
2022-08-01T08:18:06.194Z,27.27
2022-08-01T08:19:08.759Z,27.46
2022-08-01T08:20:12.590Z,27.64
2022-08-01T08:21:16.005Z,27.67
2022-08-01T08:22:18.711Z,27.74
2022-08-01T08:23:41.411Z,27.85
2022-08-01T08:24:25.997Z,27.95
2022-08-01T08:25:29.802Z,28.06
2022-08-01T08:26:34.203Z,28.30
2022-08-01T08:27:37.577Z,28.43
2022-08-01T08:28:40.847Z,28.35
2022-08-01T08:29:43.499Z,28.34
2022-08-01T08:30:46.499Z,28.44
2022-08-01T08:31:51.871Z,28.10
2022-08-01T08:32:53.554Z,27.89
2022-08-01T08:33:56.482Z,28.06
2022-08-01T08:34:59.165Z,28.08
2022-08-01T08:36:01.810Z,28.00
2022-08-01T08:37:05.299Z,27.80
2022-08-01T08:38:08.279Z,28.02
2022-08-01T08:39:12.785Z,28.32
2022-08-01T08:40:17.213Z,28.53
2022-08-01T08:41:21.450Z,28.79
2022-08-01T08:42:24.950Z,28.86
2022-08-01T08:43:27.804Z,28.81
2022-08-01T08:44:30.434Z,28.55
2022-08-01T08:45:58.779Z,28.51
2022-08-01T08:46:39.110Z,28.43
2022-08-01T08:47:42.120Z,27.99
2022-08-01T08:48:44.799Z,28.43
2022-08-01T08:49:49.327Z,28.76
2022-08-01T08:50:52.082Z,28.88
2022-08-01T08:51:54.773Z,29.00
2022-08-01T08:52:57.318Z,29.20
2022-08-01T08:54:00.867Z,29.44
2022-08-01T08:55:03.478Z,29.66
2022-08-01T08:56:06.484Z,29.86
2022-08-01T08:57:09.018Z,29.86
2022-08-01T08:58:11.687Z,29.95
2022-08-01T08:59:14.290Z,30.05
2022-08-01T09:00:17.847Z,30.15
2022-08-01T09:01:22.768Z,29.51
2022-08-01T09:02:24.935Z,29.69
2022-08-01T09:03:27.590Z,29.61
2022-08-01T09:04:30.411Z,29.64
2022-08-01T09:05:38.858Z,29.72
2022-08-01T09:06:37.562Z,29.41
2022-08-01T09:07:40.681Z,29.25
2022-08-01T09:08:43.295Z,29.30
2022-08-01T09:09:45.872Z,29.17
2022-08-01T09:10:50.669Z,28.92
2022-08-01T09:11:56.960Z,28.74
2022-08-01T09:12:57.760Z,28.44
2022-08-01T09:14:00.290Z,28.66
2022-08-01T09:15:02.876Z,28.44
2022-08-01T09:16:05.567Z,28.37
2022-08-01T09:17:08.095Z,28.28
2022-08-01T09:18:10.700Z,28.19
2022-08-01T09:19:15.947Z,28.26
2022-08-01T09:20:19.555Z,28.18
2022-08-01T09:21:22.261Z,28.18
2022-08-01T09:22:24.959Z,28.29
2022-08-01T09:23:28.247Z,28.37
2022-08-01T09:24:31.049Z,28.19
2022-08-01T09:25:36.718Z,28.32
2022-08-01T09:26:38.710Z,28.45
2022-08-01T09:27:44.379Z,28.54
2022-08-01T09:28:47.999Z,28.56
2022-08-01T09:30:01.556Z,28.54
2022-08-01T09:30:55.529Z,28.64
2022-08-01T09:31:59.117Z,28.35
2022-08-01T09:33:01.881Z,28.30
2022-08-01T09:34:06.261Z,28.18
2022-08-01T09:35:08.838Z,28.20
2022-08-01T09:36:14.053Z,28.34
2022-08-01T09:37:17.600Z,28.47
2022-08-01T09:38:22.102Z,28.46
2022-08-01T09:39:24.732Z,28.54
2022-08-01T09:40:29.080Z,28.70
2022-08-01T09:41:37.997Z,28.84
2022-08-01T09:42:36.271Z,28.96
2022-08-01T09:43:39.235Z,29.03
2022-08-01T09:44:44.136Z,28.94
2022-08-01T09:45:49.070Z,29.04
2022-08-01T09:46:51.468Z,29.16
2022-08-01T09:47:55.133Z,29.19
2022-08-01T09:48:57.895Z,29.30
2022-08-01T09:50:00.845Z,29.51
2022-08-01T09:51:07.215Z,29.58
2022-08-01T09:52:08.267Z,29.72
2022-08-01T09:53:11.147Z,29.91
2022-08-01T09:54:15.544Z,30.03
2022-08-01T09:55:18.383Z,30.14
2022-08-01T09:56:23.028Z,29.98
2022-08-01T09:57:25.909Z,29.97
2022-08-01T09:58:28.541Z,30.11
2022-08-01T09:59:40.997Z,30.18
2022-08-01T10:00:45.281Z,30.16
2022-08-01T10:01:40.527Z,30.06
2022-08-01T10:02:44.599Z,29.59
2022-08-01T10:03:48.420Z,29.23
2022-08-01T10:04:51.048Z,29.16
2022-08-01T10:05:53.742Z,29.34
2022-08-01T10:06:56.744Z,29.32
2022-08-01T10:07:59.263Z,29.37
2022-08-01T10:09:01.934Z,29.29
2022-08-01T10:10:06.749Z,29.23
2022-08-01T10:11:12.260Z,29.02
2022-08-01T10:12:15.954Z,29.13
2022-08-01T10:13:18.988Z,29.05
2022-08-01T10:14:21.626Z,29.26
2022-08-01T10:15:24.508Z,29.24
2022-08-01T10:16:30.761Z,29.18
2022-08-01T10:17:50.472Z,29.08
2022-08-01T10:18:38.272Z,28.95
2022-08-01T10:19:41.021Z,28.86
2022-08-01T10:20:45.837Z,28.58
2022-08-01T10:21:57.825Z,28.77
2022-08-01T10:22:53.489Z,28.95
2022-08-01T10:24:02.509Z,29.12
2022-08-01T10:25:01.159Z,29.20
2022-08-01T10:26:04.096Z,29.48
2022-08-01T10:27:09.015Z,29.69
2022-08-01T10:28:11.546Z,29.68
2022-08-01T10:29:45.250Z,29.90
2022-08-01T10:30:23.368Z,29.85
2022-08-01T10:31:30.478Z,29.66
2022-08-01T10:32:29.634Z,29.80
2022-08-01T10:33:50.900Z,29.96
2022-08-01T10:34:36.816Z,30.02
2022-08-01T10:35:47.150Z,29.96
2022-08-01T10:36:45.187Z,29.94
2022-08-01T10:37:51.487Z,29.89
2022-08-01T10:38:53.052Z,29.89
2022-08-01T10:40:08.811Z,29.91
2022-08-01T10:41:00.170Z,29.80
2022-08-01T10:42:04.297Z,29.91
2022-08-01T10:43:07.524Z,29.82
2022-08-01T10:44:10.074Z,29.79
2022-08-01T10:45:12.723Z,29.55
2022-08-01T10:46:16.316Z,29.31
2022-08-01T10:47:23.317Z,29.43
2022-08-01T10:48:24.728Z,29.40
2022-08-01T10:49:29.331Z,29.01
2022-08-01T10:50:33.368Z,29.24
2022-08-01T10:51:52.566Z,29.29
2022-08-01T10:52:40.890Z,29.32
2022-08-01T10:53:43.827Z,29.45
2022-08-01T10:54:52.320Z,29.64
2022-08-01T10:55:51.365Z,29.66
2022-08-01T10:56:54.175Z,29.67
2022-08-01T10:57:57.717Z,29.33
2022-08-01T10:59:00.286Z,29.34
2022-08-01T11:00:03.325Z,29.56
2022-08-01T11:01:05.940Z,29.13
2022-08-01T11:02:10.589Z,28.81
2022-08-01T11:03:13.157Z,28.80
2022-08-01T11:04:17.329Z,28.90
2022-08-01T11:05:20.132Z,28.97
2022-08-01T11:06:23.960Z,28.86
2022-08-01T11:07:26.596Z,28.60
2022-08-01T11:08:31.004Z,28.64
2022-08-01T11:09:36.251Z,28.34
2022-08-01T11:10:38.845Z,28.46
2022-08-01T11:11:42.804Z,28.34
2022-08-01T11:12:46.705Z,28.46
2022-08-01T11:13:49.287Z,28.68
2022-08-01T11:14:56.062Z,28.93
2022-08-01T11:15:56.348Z,28.99
2022-08-01T11:17:01.019Z,29.12
2022-08-01T11:18:04.551Z,28.87
2022-08-01T11:19:07.693Z,29.03
2022-08-01T11:20:11.016Z,28.94
2022-08-01T11:21:58.678Z,29.04
2022-08-01T11:22:25.174Z,29.38
2022-08-01T11:23:25.381Z,29.64
2022-08-01T11:24:28.126Z,29.55
2022-08-01T11:26:06.755Z,29.70
2022-08-01T11:26:35.639Z,29.53
2022-08-01T11:27:38.236Z,29.35
2022-08-01T11:29:04.796Z,29.63
2022-08-01T11:29:47.550Z,29.54
2022-08-01T11:30:50.515Z,29.34
2022-08-01T11:31:53.288Z,29.72
2022-08-01T11:33:12.156Z,30.05
2022-08-01T11:34:03.395Z,30.39
2022-08-01T11:35:05.141Z,30.48
2022-08-01T11:36:10.516Z,30.76
2022-08-01T11:37:14.307Z,30.85
2022-08-01T11:38:17.805Z,30.92
2022-08-01T11:39:20.586Z,31.06
2022-08-01T11:40:25.173Z,31.13
2022-08-01T11:41:37.589Z,31.40
2022-08-01T11:42:33.396Z,31.43
2022-08-01T11:43:37.084Z,31.39
2022-08-01T11:44:39.759Z,31.54
2022-08-01T11:45:44.268Z,31.44
2022-08-01T11:46:47.313Z,31.60
2022-08-01T11:47:51.860Z,31.60
2022-08-01T11:48:54.477Z,31.69
2022-08-01T11:49:57.315Z,31.62
2022-08-01T11:51:02.206Z,31.48
2022-08-01T11:52:04.792Z,31.41
2022-08-01T11:53:08.381Z,31.36
2022-08-01T11:54:10.901Z,31.33
2022-08-01T11:55:16.721Z,31.36
2022-08-01T11:56:19.459Z,31.20
2022-08-01T11:57:23.076Z,30.87
2022-08-01T11:58:27.601Z,30.92
2022-08-01T11:59:38.004Z,31.03
2022-08-01T12:00:35.356Z,30.94
2022-08-01T12:01:38.082Z,31.09
2022-08-01T12:02:42.891Z,31.12
2022-08-01T12:03:47.312Z,31.03
2022-08-01T12:04:50.648Z,30.61
2022-08-01T12:05:53.955Z,30.68
2022-08-01T12:06:57.716Z,30.67
2022-08-01T12:08:00.191Z,30.75
2022-08-01T12:09:02.748Z,30.64
2022-08-01T12:10:05.391Z,30.38
2022-08-01T12:11:07.960Z,30.66
2022-08-01T12:12:10.451Z,30.93
2022-08-01T12:13:13.183Z,31.08
2022-08-01T12:14:15.788Z,31.24
2022-08-01T12:15:18.379Z,31.43
2022-08-01T12:16:24.011Z,31.58
2022-08-01T12:17:27.279Z,31.72
2022-08-01T12:18:29.844Z,31.38
2022-08-01T12:19:32.410Z,31.50
2022-08-01T12:20:35.595Z,31.31
2022-08-01T12:21:38.568Z,31.40
2022-08-01T12:22:41.504Z,31.36
2022-08-01T12:23:44.219Z,31.45
2022-08-01T12:24:47.087Z,31.18
2022-08-01T12:25:49.779Z,31.34
2022-08-01T12:26:52.543Z,31.59
2022-08-01T12:27:56.887Z,31.82
2022-08-01T12:28:59.711Z,31.88
2022-08-01T12:30:02.690Z,32.01
2022-08-01T12:31:05.270Z,31.98
2022-08-01T12:32:07.822Z,31.82
2022-08-01T12:33:10.411Z,31.28
2022-08-01T12:34:12.916Z,31.12
2022-08-01T12:35:18.368Z,31.19
2022-08-01T12:36:20.448Z,31.21
2022-08-01T12:37:23.317Z,30.95
2022-08-01T12:38:26.056Z,31.24
2022-08-01T12:39:28.860Z,31.35
2022-08-01T12:40:33.169Z,31.17
2022-08-01T12:41:35.699Z,30.70
2022-08-01T12:42:38.303Z,31.23
2022-08-01T12:43:41.107Z,31.37
2022-08-01T12:44:43.775Z,31.41
2022-08-01T12:45:56.919Z,31.55
2022-08-01T12:46:50.932Z,31.99
2022-08-01T12:47:53.599Z,32.01
2022-08-01T12:48:56.203Z,32.06
2022-08-01T12:49:58.968Z,32.47
2022-08-01T12:51:01.872Z,32.45
2022-08-01T12:52:04.439Z,32.61
2022-08-01T12:53:07.170Z,33.04
2022-08-01T12:54:09.950Z,33.44
2022-08-01T12:55:12.549Z,33.64
2022-08-01T12:56:16.079Z,33.71
2022-08-01T12:57:18.668Z,33.49
2022-08-01T12:58:21.316Z,32.99
2022-08-01T12:59:23.839Z,32.96
2022-08-01T13:00:27.167Z,32.92
2022-08-01T13:01:29.892Z,33.16
2022-08-01T13:02:32.461Z,32.99
2022-08-01T13:03:35.070Z,33.17
2022-08-01T13:04:37.721Z,33.17
2022-08-01T13:05:40.303Z,33.39
2022-08-01T13:06:43.187Z,33.38
2022-08-01T13:07:46.174Z,33.35
2022-08-01T13:08:49.128Z,33.22
2022-08-01T13:09:51.702Z,32.99
2022-08-01T13:10:54.467Z,33.04
2022-08-01T13:12:03.784Z,32.83
2022-08-01T13:13:01.511Z,32.83
2022-08-01T13:14:04.321Z,32.58
2022-08-01T13:15:06.944Z,32.42
2022-08-01T13:16:12.395Z,32.67
2022-08-01T13:17:14.841Z,32.96
2022-08-01T13:18:18.476Z,33.01
2022-08-01T13:19:21.103Z,32.40
2022-08-01T13:20:23.919Z,32.41
2022-08-01T13:21:26.688Z,32.58
2022-08-01T13:22:29.622Z,32.87
2022-08-01T13:24:01.387Z,33.12
2022-08-01T13:24:36.807Z,32.97
2022-08-01T13:25:39.528Z,33.17
2022-08-01T13:26:42.497Z,33.31
2022-08-01T13:27:53.685Z,33.45
2022-08-01T13:28:49.530Z,33.08
2022-08-01T13:29:52.049Z,32.97
2022-08-01T13:30:55.018Z,33.13
2022-08-01T13:31:57.684Z,33.47
2022-08-01T13:33:00.316Z,33.35
2022-08-01T13:34:02.917Z,33.55
2022-08-01T13:35:05.438Z,33.67